createdAt,value
2023-04-09T00:01:10.294Z,42.40
2023-04-09T00:03:40.686Z,40.60
2023-04-09T00:06:09.463Z,43.93
2023-04-09T00:08:39.897Z,43.47
2023-04-09T00:11:08.496Z,40.77
2023-04-09T00:13:39.528Z,44.87
2023-04-09T00:16:09.446Z,44.93
2023-04-09T00:18:38.251Z,41.60
2023-04-09T00:21:08.917Z,39.23
2023-04-09T00:23:39.010Z,38.83
2023-04-09T00:26:07.689Z,39.67
2023-04-09T00:28:36.365Z,39.33
2023-04-09T00:31:05.291Z,38.87
2023-04-09T00:33:33.905Z,38.97
2023-04-09T00:36:02.700Z,39.03
2023-04-09T00:38:32.012Z,41.33
2023-04-09T00:41:02.127Z,38.17
2023-04-09T00:43:30.986Z,43.53
2023-04-09T00:46:00.956Z,36.37
2023-04-09T00:48:29.757Z,40.80
2023-04-09T00:50:58.403Z,40.37
2023-04-09T00:53:27.384Z,38.33
2023-04-09T00:55:57.279Z,39.50
2023-04-09T00:58:27.416Z,37.27
2023-04-09T01:00:56.394Z,40.33
2023-04-09T01:03:25.554Z,38.33
2023-04-09T01:06:04.692Z,39.03
2023-04-09T01:08:40.574Z,39.20
2023-04-09T01:11:17.484Z,36.83
2023-04-09T01:14:01.243Z,40.90
2023-04-09T01:16:31.248Z,39.60
2023-04-09T01:19:04.308Z,41.13
2023-04-09T01:21:35.338Z,47.77
2023-04-09T01:24:20.717Z,42.37
2023-04-09T01:26:58.527Z,42.13
2023-04-09T01:29:33.301Z,49.13
2023-04-09T01:32:03.709Z,44.20
2023-04-09T01:34:33.088Z,44.10
2023-04-09T01:37:04.783Z,48.60
2023-04-09T01:39:34.494Z,44.43
2023-04-09T01:42:04.327Z,44.60
2023-04-09T01:44:34.812Z,45.23
2023-04-09T01:47:03.999Z,45.43
2023-04-09T01:49:33.289Z,44.47
2023-04-09T01:52:02.303Z,43.90
2023-04-09T01:54:30.861Z,44.53
2023-04-09T01:56:59.844Z,45.53
2023-04-09T01:59:28.445Z,45.07
2023-04-09T02:02:03.804Z,46.60
2023-04-09T02:04:35.648Z,50.00
2023-04-09T02:07:07.968Z,45.13
2023-04-09T02:09:40.712Z,48.40
2023-04-09T02:12:13.549Z,48.47
2023-04-09T02:14:44.113Z,44.43
2023-04-09T02:17:14.717Z,47.20
2023-04-09T02:19:44.854Z,44.03
2023-04-09T02:22:14.165Z,49.73
2023-04-09T02:24:42.744Z,42.13
2023-04-09T02:27:11.505Z,44.33
2023-04-09T02:29:41.001Z,44.77
2023-04-09T02:32:09.679Z,44.10
2023-04-09T02:34:39.706Z,42.70
2023-04-09T02:37:08.377Z,43.77
2023-04-09T02:39:37.221Z,44.03
2023-04-09T02:42:08.073Z,44.97
2023-04-09T02:44:36.707Z,41.83
2023-04-09T02:47:05.689Z,45.97
2023-04-09T02:49:34.684Z,46.50
2023-04-09T02:52:04.782Z,44.43
2023-04-09T02:54:33.375Z,40.73
2023-04-09T02:57:01.967Z,43.63
2023-04-09T02:59:30.467Z,43.57
2023-04-09T03:01:59.091Z,46.37
2023-04-09T03:04:28.042Z,43.50
2023-04-09T03:06:56.580Z,47.33
2023-04-09T03:09:26.670Z,42.33
2023-04-09T03:11:56.509Z,44.23
2023-04-09T03:14:25.150Z,40.07
2023-04-09T03:16:53.755Z,45.20
2023-04-09T03:19:22.463Z,45.67
2023-04-09T03:21:51.513Z,43.67
2023-04-09T03:24:20.040Z,36.33
2023-04-09T03:26:50.357Z,39.93
2023-04-09T03:29:18.908Z,48.17
2023-04-09T03:31:47.429Z,48.30
2023-04-09T03:34:16.134Z,44.27
2023-04-09T03:36:45.004Z,46.23
2023-04-09T03:39:13.475Z,45.43
2023-04-09T03:41:42.021Z,45.07
2023-04-09T03:44:12.001Z,42.20
2023-04-09T03:46:40.854Z,40.30
2023-04-09T03:49:09.693Z,43.20
2023-04-09T03:51:38.215Z,38.50
2023-04-09T03:54:06.718Z,35.63
2023-04-09T03:56:35.580Z,43.93
2023-04-09T03:59:04.189Z,43.60
2023-04-09T04:01:35.120Z,42.80
2023-04-09T04:04:03.992Z,45.27
2023-04-09T04:06:35.330Z,31.93
2023-04-09T04:09:04.021Z,36.43
2023-04-09T04:11:32.647Z,39.87
2023-04-09T04:14:01.225Z,35.43
2023-04-09T04:16:30.107Z,34.83
2023-04-09T04:19:00.087Z,36.87
2023-04-09T04:21:28.617Z,39.23
2023-04-09T04:23:57.257Z,34.90
2023-04-09T04:26:26.057Z,34.30
2023-04-09T04:28:54.779Z,34.00
2023-04-09T04:31:23.494Z,33.93
2023-04-09T04:33:51.975Z,29.80
2023-04-09T04:36:22.106Z,32.47
2023-04-09T04:38:50.868Z,33.47
2023-04-09T04:41:19.677Z,35.87
2023-04-09T04:43:49.048Z,30.77
2023-04-09T04:46:17.705Z,30.97
2023-04-09T04:48:46.271Z,29.40
2023-04-09T04:51:14.881Z,34.23
2023-04-09T04:53:45.207Z,33.67
2023-04-09T04:56:15.738Z,31.33
2023-04-09T04:58:44.248Z,38.97
2023-04-09T05:01:12.887Z,38.30
2023-04-09T05:03:41.617Z,37.27
2023-04-09T05:06:10.337Z,37.17
2023-04-09T05:08:39.811Z,34.70
2023-04-09T05:11:13.238Z,35.57
2023-04-09T05:13:41.768Z,33.73
2023-04-09T05:16:10.320Z,40.10
2023-04-09T05:18:39.633Z,41.87
2023-04-09T05:21:08.117Z,33.90
2023-04-09T05:23:36.618Z,37.13
2023-04-09T05:26:05.775Z,39.33
2023-04-09T05:28:35.826Z,40.70
2023-04-09T05:31:04.355Z,35.23
2023-04-09T05:33:37.904Z,31.50
2023-04-09T05:36:07.290Z,35.33
2023-04-09T05:38:36.189Z,31.73
2023-04-09T05:41:05.029Z,38.43
2023-04-09T05:43:35.013Z,37.90
2023-04-09T05:46:03.569Z,35.23
2023-04-09T05:48:32.141Z,35.70
2023-04-09T05:51:01.085Z,38.67
2023-04-09T05:53:29.720Z,39.83
2023-04-09T05:55:58.611Z,31.70
2023-04-09T05:58:27.469Z,39.60
2023-04-09T06:00:57.401Z,38.93
2023-04-09T06:03:26.123Z,39.57
2023-04-09T06:05:55.032Z,40.07
2023-04-09T06:08:23.518Z,42.30
2023-04-09T06:10:52.046Z,42.73
2023-04-09T06:13:21.454Z,43.53
2023-04-09T06:15:50.305Z,41.70
2023-04-09T06:18:20.349Z,41.07
2023-04-09T06:20:48.845Z,43.27
2023-04-09T06:23:17.393Z,40.77
2023-04-09T06:25:46.298Z,48.67
2023-04-09T06:28:14.820Z,45.30
2023-04-09T06:30:43.282Z,50.67
2023-04-09T06:33:11.809Z,49.43
2023-04-09T06:35:41.998Z,49.67
2023-04-09T06:38:11.212Z,52.63
2023-04-09T06:40:40.594Z,53.27
2023-04-09T06:43:09.724Z,52.40
2023-04-09T06:45:40.988Z,53.00
2023-04-09T06:48:09.955Z,54.87
2023-04-09T06:50:38.857Z,54.73
2023-04-09T06:53:09.399Z,55.30
2023-04-09T06:55:38.091Z,53.13
2023-04-09T06:58:06.917Z,47.97
2023-04-09T07:00:35.768Z,50.57
2023-04-09T07:03:05.118Z,51.27
2023-04-09T07:05:33.800Z,46.40
2023-04-09T07:08:02.328Z,43.83
2023-04-09T07:10:32.664Z,44.47
2023-04-09T07:13:01.288Z,42.27
2023-04-09T07:15:29.819Z,40.87
2023-04-09T07:17:58.867Z,42.33
2023-04-09T07:20:27.434Z,43.23
2023-04-09T07:22:56.046Z,41.80
2023-04-09T07:25:25.093Z,39.03
2023-04-09T07:27:55.177Z,41.20
2023-04-09T07:30:24.256Z,40.50
2023-04-09T07:32:53.092Z,37.80
2023-04-09T07:35:22.154Z,39.60
2023-04-09T07:37:50.912Z,37.10
2023-04-09T07:40:20.479Z,33.87
2023-04-09T07:42:49.790Z,31.47
2023-04-09T07:45:20.666Z,35.60
2023-04-09T07:47:49.346Z,29.70
2023-04-09T07:50:17.960Z,30.77
2023-04-09T07:52:46.464Z,30.60
2023-04-09T07:55:16.265Z,27.13
2023-04-09T07:57:45.422Z,27.33
2023-04-09T08:00:15.058Z,24.63
2023-04-09T08:02:45.319Z,24.77
2023-04-09T08:05:14.249Z,25.43
2023-04-09T08:07:42.902Z,25.00
2023-04-09T08:10:15.313Z,26.60
2023-04-09T08:12:44.205Z,27.10
2023-04-09T08:15:13.019Z,23.33
2023-04-09T08:17:41.701Z,23.40
2023-04-09T08:20:13.318Z,23.30
2023-04-09T08:22:42.944Z,24.97
2023-04-09T08:25:11.603Z,20.87
2023-04-09T08:27:40.281Z,33.20
2023-04-09T08:30:10.214Z,21.17
2023-04-09T08:32:39.138Z,23.47
2023-04-09T08:35:09.308Z,20.27
2023-04-09T08:37:39.740Z,21.73
2023-04-09T08:40:10.135Z,20.20
2023-04-09T08:42:40.894Z,18.70
2023-04-09T08:45:11.885Z,18.57
2023-04-09T08:47:42.292Z,18.50
2023-04-09T08:50:11.835Z,16.97
2023-04-09T08:52:42.355Z,18.17
2023-04-09T08:55:13.938Z,17.87
2023-04-09T08:57:43.009Z,18.97
2023-04-09T09:00:12.458Z,13.83
2023-04-09T09:03:01.577Z,13.87
2023-04-09T09:05:38.420Z,14.90
2023-04-09T09:08:10.005Z,18.77
2023-04-09T09:10:44.033Z,12.00
2023-04-09T09:13:21.495Z,14.60
2023-04-09T09:15:54.232Z,12.03
2023-04-09T09:18:38.563Z,12.47
2023-04-09T09:21:12.930Z,9.93
2023-04-09T09:23:43.795Z,11.27
2023-04-09T09:26:16.619Z,10.73
2023-04-09T09:28:45.813Z,12.07
2023-04-09T09:31:15.227Z,9.37
2023-04-09T09:33:44.382Z,9.43
2023-04-09T09:36:13.297Z,12.60
2023-04-09T09:38:57.323Z,11.57
2023-04-09T09:41:27.705Z,11.07
2023-04-09T09:43:57.004Z,10.17
2023-04-09T09:46:28.800Z,10.53
2023-04-09T09:48:58.452Z,8.93
2023-04-09T09:51:30.332Z,8.10
2023-04-09T09:54:01.445Z,9.60
2023-04-09T09:56:33.772Z,7.97
2023-04-09T09:59:08.904Z,7.50
2023-04-09T10:01:39.061Z,7.40
2023-04-09T10:04:13.709Z,6.60
2023-04-09T10:06:45.776Z,8.10
2023-04-09T10:09:16.078Z,7.33
2023-04-09T10:11:48.190Z,7.83
2023-04-09T10:14:19.205Z,8.63
2023-04-09T10:16:48.717Z,8.37
2023-04-09T10:19:19.801Z,7.70
2023-04-09T10:21:55.262Z,10.30
2023-04-09T10:24:25.953Z,9.03
2023-04-09T10:26:56.858Z,7.70
2023-04-09T10:29:30.609Z,7.80
2023-04-09T10:32:08.543Z,7.43
2023-04-09T10:34:39.562Z,8.57
2023-04-09T10:37:10.829Z,7.53
2023-04-09T10:39:46.404Z,8.97
2023-04-09T10:42:17.101Z,10.97
2023-04-09T10:44:50.100Z,9.93
2023-04-09T10:47:34.669Z,8.50
2023-04-09T10:50:19.983Z,9.10
2023-04-09T10:52:53.187Z,11.13
2023-04-09T10:55:50.458Z,9.07
2023-04-09T10:58:20.144Z,9.87
2023-04-09T11:00:51.039Z,9.57
2023-04-09T11:03:25.984Z,8.97
2023-04-09T11:06:02.605Z,9.03
2023-04-09T11:08:33.836Z,8.80
2023-04-09T11:11:05.590Z,9.33
2023-04-09T11:13:37.749Z,8.53
2023-04-09T11:16:07.532Z,9.13
2023-04-09T11:18:37.561Z,8.60
2023-04-09T11:21:06.738Z,7.43
2023-04-09T11:23:37.211Z,9.30
2023-04-09T11:26:07.961Z,7.77
2023-04-09T11:28:37.268Z,8.23
2023-04-09T11:31:07.594Z,8.00
2023-04-09T11:33:36.591Z,7.93
2023-04-09T11:36:07.826Z,8.37
2023-04-09T11:38:38.982Z,9.40
2023-04-09T11:41:13.734Z,8.67
2023-04-09T11:43:42.672Z,7.77
2023-04-09T11:46:15.466Z,8.60
2023-04-09T11:48:44.269Z,8.57
2023-04-09T11:51:14.347Z,8.50
2023-04-09T11:53:43.825Z,9.03
2023-04-09T11:56:14.812Z,7.70
2023-04-09T11:58:48.753Z,8.33
2023-04-09T12:01:24.058Z,8.57
2023-04-09T12:03:55.405Z,8.70
2023-04-09T12:06:25.909Z,8.13
2023-04-09T12:08:55.761Z,8.70
2023-04-09T12:11:37.728Z,8.00
2023-04-09T12:14:14.921Z,8.00
2023-04-09T12:16:45.086Z,8.20
2023-04-09T12:19:15.939Z,8.57
2023-04-09T12:21:51.868Z,8.07
2023-04-09T12:24:22.859Z,7.37
2023-04-09T12:26:53.784Z,8.53
2023-04-09T12:29:27.104Z,7.97
2023-04-09T12:31:56.264Z,7.67
2023-04-09T12:34:27.654Z,7.53
2023-04-09T12:36:56.880Z,8.70
2023-04-09T12:39:34.490Z,7.73
2023-04-09T12:42:09.888Z,7.23
2023-04-09T12:44:39.472Z,7.07
2023-04-09T12:47:10.423Z,9.93
2023-04-09T12:49:42.350Z,10.87
2023-04-09T12:52:12.336Z,7.47
2023-04-09T12:54:43.715Z,8.53
2023-04-09T12:57:16.903Z,8.90
2023-04-09T12:59:49.981Z,9.83
2023-04-09T13:02:24.892Z,8.03
2023-04-09T13:04:55.244Z,8.07
2023-04-09T13:07:26.786Z,7.13
2023-04-09T13:09:55.548Z,9.97
2023-04-09T13:12:26.241Z,6.70
2023-04-09T13:14:57.221Z,7.23
2023-04-09T13:17:28.673Z,7.63
2023-04-09T13:19:57.701Z,6.90
2023-04-09T13:22:27.486Z,8.40
2023-04-09T13:24:59.984Z,13.50
2023-04-09T13:27:30.137Z,10.63
2023-04-09T13:29:58.900Z,15.27
2023-04-09T13:32:30.477Z,10.97
2023-04-09T13:34:59.337Z,10.47
2023-04-09T13:37:28.123Z,8.50
2023-04-09T13:39:57.820Z,7.97
2023-04-09T13:42:33.100Z,11.63
2023-04-09T13:45:02.039Z,7.93
2023-04-09T13:47:31.356Z,9.33
2023-04-09T13:49:59.989Z,7.53
2023-04-09T13:52:31.446Z,9.33
2023-04-09T13:55:00.208Z,9.03
2023-04-09T13:57:30.334Z,8.67
2023-04-09T14:00:02.435Z,8.77
2023-04-09T14:02:31.357Z,8.17
2023-04-09T14:05:00.525Z,8.40
2023-04-09T14:07:29.308Z,8.20
2023-04-09T14:09:58.393Z,7.47
2023-04-09T14:12:27.147Z,7.10
2023-04-09T14:14:57.330Z,6.60
2023-04-09T14:17:26.032Z,7.60
2023-04-09T14:19:55.244Z,7.20
2023-04-09T14:22:24.125Z,7.00
2023-04-09T14:24:52.855Z,7.47
2023-04-09T14:27:21.591Z,7.97
2023-04-09T14:29:50.846Z,8.33
2023-04-09T14:32:21.339Z,7.10
2023-04-09T14:34:50.663Z,9.67
2023-04-09T14:37:19.429Z,7.27
2023-04-09T14:39:48.578Z,8.40
2023-04-09T14:42:17.605Z,7.80
2023-04-09T14:44:46.832Z,6.47
2023-04-09T14:47:16.042Z,19.20
2023-04-09T14:49:46.568Z,9.40
2023-04-09T14:52:15.445Z,23.37
2023-04-09T14:54:44.514Z,8.57
2023-04-09T14:57:13.428Z,8.93
2023-04-09T14:59:42.477Z,9.60
2023-04-09T15:02:11.457Z,10.33
2023-04-09T15:04:40.631Z,6.63
2023-04-09T15:07:11.641Z,12.93
2023-04-09T15:09:42.790Z,7.57
2023-04-09T15:12:11.694Z,7.27
2023-04-09T15:14:46.998Z,6.23
2023-04-09T15:17:17.282Z,6.83
2023-04-09T15:19:46.154Z,9.30
2023-04-09T15:22:16.744Z,7.87
2023-04-09T15:24:47.448Z,7.20
2023-04-09T15:27:16.330Z,6.70
2023-04-09T15:29:48.097Z,5.77
2023-04-09T15:32:16.745Z,8.57
2023-04-09T15:34:45.886Z,6.50
2023-04-09T15:37:16.220Z,11.33
2023-04-09T15:39:44.996Z,7.03
2023-04-09T15:42:14.828Z,6.83
2023-04-09T15:44:43.736Z,8.10
2023-04-09T15:47:12.559Z,6.90
2023-04-09T15:49:41.355Z,8.43
2023-04-09T15:52:10.839Z,6.67
2023-04-09T15:54:41.232Z,6.20
2023-04-09T15:57:10.018Z,6.40
2023-04-09T15:59:38.948Z,6.40
2023-04-09T16:02:08.459Z,6.93
2023-04-09T16:04:39.893Z,6.43
2023-04-09T16:07:09.552Z,8.30
2023-04-09T16:09:38.649Z,6.60
2023-04-09T16:12:09.441Z,10.33
2023-04-09T16:14:38.524Z,9.07
2023-04-09T16:17:07.485Z,7.00
2023-04-09T16:19:36.711Z,7.17
2023-04-09T16:22:05.606Z,6.87
2023-04-09T16:24:35.550Z,8.20
2023-04-09T16:27:04.520Z,7.20
2023-04-09T16:29:34.976Z,7.63
2023-04-09T16:32:07.220Z,7.30
2023-04-09T16:34:36.605Z,6.70
2023-04-09T16:37:15.914Z,7.00
2023-04-09T16:39:48.257Z,7.20
2023-04-09T16:42:17.695Z,7.10
2023-04-09T16:44:47.791Z,8.27
2023-04-09T16:47:16.694Z,7.50
2023-04-09T16:49:45.523Z,6.40
2023-04-09T16:52:14.716Z,7.80
2023-04-09T16:54:43.390Z,6.40
2023-04-09T16:57:12.776Z,6.40
2023-04-09T16:59:42.730Z,6.10
2023-04-09T17:02:13.540Z,7.30
2023-04-09T17:04:42.368Z,9.27
2023-04-09T17:07:11.104Z,10.23
2023-04-09T17:09:40.996Z,9.67
2023-04-09T17:12:11.487Z,10.10
2023-04-09T17:14:42.274Z,7.90
2023-04-09T17:17:13.169Z,7.77
2023-04-09T17:19:44.547Z,10.27
2023-04-09T17:22:14.196Z,8.33
2023-04-09T17:24:43.116Z,8.23
2023-04-09T17:27:12.282Z,12.40
2023-04-09T17:29:41.275Z,44.53
2023-04-09T17:32:10.734Z,15.70
2023-04-09T17:34:41.937Z,10.97
2023-04-09T17:37:10.816Z,8.97
2023-04-09T17:39:39.966Z,7.40
2023-04-09T17:42:13.254Z,10.43
2023-04-09T17:44:42.325Z,7.20
2023-04-09T17:47:12.917Z,7.40
2023-04-09T17:49:46.459Z,6.17
2023-04-09T17:52:16.853Z,7.97
2023-04-09T17:54:46.891Z,8.77
2023-04-09T17:57:15.722Z,6.93
2023-04-09T17:59:44.629Z,11.50
2023-04-09T18:02:14.199Z,9.63
2023-04-09T18:04:44.856Z,9.03
2023-04-09T18:07:13.780Z,8.17
2023-04-09T18:09:42.530Z,8.80
2023-04-09T18:12:11.233Z,8.80
2023-04-09T18:14:40.099Z,7.97
2023-04-09T18:17:10.113Z,10.93
2023-04-09T18:19:39.260Z,8.27
2023-04-09T18:22:09.580Z,8.83
2023-04-09T18:24:38.506Z,7.97
2023-04-09T18:27:07.802Z,7.20
2023-04-09T18:29:37.196Z,8.70
2023-04-09T18:32:06.745Z,8.80
2023-04-09T18:34:35.474Z,8.70
2023-04-09T18:37:04.572Z,8.87
2023-04-09T18:39:36.560Z,9.13
2023-04-09T18:42:05.866Z,10.20
2023-04-09T18:44:36.531Z,10.20
2023-04-09T18:47:06.127Z,9.23
2023-04-09T18:49:35.353Z,9.70
2023-04-09T18:52:05.714Z,10.20
2023-04-09T18:54:37.394Z,9.10
2023-04-09T18:57:06.721Z,11.07
2023-04-09T18:59:35.992Z,10.50
2023-04-09T19:02:06.432Z,9.80
2023-04-09T19:04:40.174Z,9.73
2023-04-09T19:07:11.316Z,9.07
2023-04-09T19:09:41.953Z,8.47
2023-04-09T19:12:10.929Z,8.03
2023-04-09T19:14:40.422Z,8.03
2023-04-09T19:17:09.409Z,7.83
2023-04-09T19:19:38.619Z,8.97
2023-04-09T19:22:07.611Z,7.10
2023-04-09T19:24:36.774Z,6.40
2023-04-09T19:27:10.027Z,7.00
2023-04-09T19:29:41.392Z,7.00
2023-04-09T19:32:12.983Z,6.63
2023-04-09T19:34:42.462Z,7.40
2023-04-09T19:37:12.036Z,7.87
2023-04-09T19:39:41.781Z,8.70
2023-04-09T19:42:12.694Z,8.50
2023-04-09T19:44:41.733Z,8.40
2023-04-09T19:47:10.710Z,8.33
2023-04-09T19:49:42.082Z,7.73
2023-04-09T19:52:18.484Z,8.33
2023-04-09T19:54:47.762Z,8.53
2023-04-09T19:57:18.175Z,8.43
2023-04-09T19:59:48.585Z,9.37
2023-04-09T20:02:18.808Z,9.43
2023-04-09T20:04:51.026Z,9.40
2023-04-09T20:07:20.310Z,10.70
2023-04-09T20:09:53.060Z,13.80
2023-04-09T20:12:28.421Z,12.97
2023-04-09T20:15:00.640Z,14.40
2023-04-09T20:17:30.075Z,17.60
2023-04-09T20:19:59.418Z,18.30
2023-04-09T20:22:29.333Z,17.80
2023-04-09T20:25:02.328Z,18.90
2023-04-09T20:27:33.335Z,18.07
2023-04-09T20:30:02.795Z,17.07
2023-04-09T20:32:31.660Z,16.67
2023-04-09T20:35:07.540Z,15.93
2023-04-09T20:37:43.146Z,15.03
2023-04-09T20:40:13.548Z,16.57
2023-04-09T20:42:43.983Z,16.17
2023-04-09T20:45:13.819Z,17.60
2023-04-09T20:47:43.032Z,20.47
2023-04-09T20:50:12.684Z,20.37
2023-04-09T20:52:41.986Z,18.43
2023-04-09T20:55:11.997Z,16.47
2023-04-09T20:57:42.916Z,17.57
2023-04-09T21:00:13.834Z,14.97
2023-04-09T21:02:42.902Z,13.83
2023-04-09T21:05:22.633Z,13.67
2023-04-09T21:07:53.249Z,12.87
2023-04-09T21:10:22.930Z,13.87
2023-04-09T21:12:53.451Z,13.83
2023-04-09T21:15:22.199Z,13.47
2023-04-09T21:17:51.136Z,14.50
2023-04-09T21:20:20.486Z,14.80
2023-04-09T21:22:50.064Z,13.33
2023-04-09T21:25:21.804Z,14.50
2023-04-09T21:27:50.980Z,16.53
2023-04-09T21:30:21.266Z,16.87
2023-04-09T21:32:50.503Z,16.77
2023-04-09T21:35:19.808Z,16.40
2023-04-09T21:37:50.667Z,17.47
2023-04-09T21:40:19.757Z,20.30
2023-04-09T21:42:49.024Z,22.77
2023-04-09T21:45:18.366Z,30.40
2023-04-09T21:47:48.552Z,28.30
2023-04-09T21:50:17.539Z,29.73
2023-04-09T21:52:47.378Z,32.20
2023-04-09T21:55:17.528Z,35.20
2023-04-09T21:57:46.314Z,34.67
2023-04-09T22:00:19.019Z,35.77
2023-04-09T22:02:49.448Z,33.70
2023-04-09T22:05:19.287Z,33.67
2023-04-09T22:07:48.005Z,33.07
2023-04-09T22:10:17.124Z,28.73
2023-04-09T22:12:45.958Z,27.43
2023-04-09T22:15:14.760Z,30.83
2023-04-09T22:17:43.430Z,24.70
2023-04-09T22:20:14.050Z,27.43
2023-04-09T22:22:43.001Z,25.97
2023-04-09T22:25:12.488Z,26.73
2023-04-09T22:27:41.791Z,26.77
2023-04-09T22:30:11.208Z,27.50
2023-04-09T22:32:40.049Z,27.80
2023-04-09T22:35:10.486Z,29.07
2023-04-09T22:37:41.274Z,29.23
2023-04-09T22:40:14.714Z,27.83
2023-04-09T22:42:44.181Z,27.87
2023-04-09T22:45:13.438Z,28.13
2023-04-09T22:47:42.422Z,25.70
2023-04-09T22:50:13.620Z,25.93
2023-04-09T22:52:43.762Z,25.03
2023-04-09T22:55:13.874Z,24.83
2023-04-09T22:57:44.645Z,23.27
2023-04-09T23:00:14.278Z,23.00
2023-04-09T23:02:43.359Z,22.03
2023-04-09T23:05:15.082Z,19.43
2023-04-09T23:07:46.919Z,22.23
2023-04-09T23:10:17.661Z,21.43
2023-04-09T23:12:46.470Z,20.23
2023-04-09T23:15:15.086Z,18.10
2023-04-09T23:17:43.822Z,18.90
2023-04-09T23:20:15.166Z,18.17
2023-04-09T23:22:47.264Z,18.37
2023-04-09T23:25:16.222Z,16.67
2023-04-09T23:27:46.823Z,19.17
2023-04-09T23:30:18.328Z,18.33
2023-04-09T23:32:47.268Z,19.73
2023-04-09T23:35:16.864Z,21.10
2023-04-09T23:37:49.280Z,20.40
2023-04-09T23:40:21.965Z,19.80
2023-04-09T23:42:51.283Z,20.53
2023-04-09T23:45:23.819Z,19.77
2023-04-09T23:47:53.130Z,19.93
2023-04-09T23:50:23.284Z,19.67
2023-04-09T23:52:55.132Z,17.93
2023-04-09T23:55:24.098Z,17.80
2023-04-09T23:57:52.674Z,18.60
